Tetide — IVTN — position and weather

sailwx.info

Track history (hours):
 
Tides and Currents Weather Stations Pressure Air Temp Water Temp Dewpoint Dewpoint Depression Visibility Wind Speed Wind Dir Waves Ship Positions

Tetide

Last reported at 2016-Jun-30 06:23 UTC. Time now 2016-Jun-30 10:32 UTC.
Position N 41°12' E 013°35'.

Length 70 m; draft 3.6 m.

Type: Passenger vessel. MMSI: 247043100.

Date/timePositionNaut miles runAvg speedWind from/ knotsBaromVisibWave heightAir tempDewpointWater temp
2016-Jun-30 06:23N 41°12' E 013°35'3 0.8
2016-Jun-30 02:23N 41°15' E 013°37'0 0.0
2016-Jun-30 01:06N 41°15' E 013°37'0 0.0
2016-Jun-30 00:33N 41°15' E 013°37'0 0.0
2016-Jun-29 23:33N 41°15' E 013°37'0 0.0
2016-Jun-29 22:26N 41°15' E 013°37'0 0.0
2016-Jun-29 21:33N 41°15' E 013°37'0 0.0
2016-Jun-29 20:20N 41°15' E 013°37'0 0.0
2016-Jun-29 19:33N 41°15' E 013°37'0 0.0
2016-Jun-29 18:33N 41°15' E 013°37'1512.1
2016-Jun-29 17:18N 41°05' E 013°21'15 3.2
2016-Jun-29 12:33N 41°15' E 013°37'0 0.0
2016-Jun-28 20:24N 41°15' E 013°37'0 0.0
2016-Jun-28 19:21N 41°15' E 013°37'2 3.0
2016-Jun-28 18:33N 41°13' E 013°36'1414.5
2016-Jun-28 17:34N 41°04' E 013°21'1515.0
2016-Jun-28 16:33N 40°56' E 013°04'3 3.3
2016-Jun-28 15:32N 40°55' E 013°00'1413.8
2016-Jun-28 14:32N 41°02' E 013°15'1414.0
2016-Jun-28 13:33N 41°10' E 013°31'7 7.2
2016-Jun-28 12:33N 41°15' E 013°37'6 5.6
2016-Jun-28 11:34N 41°11' E 013°33'6 0.4
2016-Jun-27 21:31N 41°15' E 013°37'0 0.0
2016-Jun-27 20:22N 41°15' E 013°37'0 0.0
2016-Jun-27 19:33N 41°15' E 013°37'0 0.0
2016-Jun-27 12:17N 41°15' E 013°37'6 8.9
2016-Jun-27 11:33N 41°10' E 013°32'1514.6
2016-Jun-27 10:33N 41°02' E 013°15'10 4.9
2016-Jun-27 08:32N 40°57' E 013°04'1414.5
2016-Jun-27 07:32N 41°05' E 013°20'17 1.4
2016-Jun-26 19:34N 41°15' E 013°37'0 0.0
2016-Jun-26 18:33N 41°15' E 013°37'0 0.1
2016-Jun-26 17:33N 41°15' E 013°37'14 3.3
2016-Jun-26 13:21N 41°02' E 013°32'1214.6
2016-Jun-26 12:32N 41°13' E 013°37'19 9.0
2016-Jun-26 10:23N 41°02' E 013°15'1315.2
2016-Jun-26 09:32N 40°55' E 013°01'0 0.4
2016-Jun-26 08:32N 40°55' E 013°00'34 3.1
2016-Jun-25 21:31N 41°15' E 013°37'0 0.0
2016-Jun-25 20:26N 41°15' E 013°37'0 0.0
2016-Jun-25 19:33N 41°15' E 013°37'0 0.0
2016-Jun-25 18:33N 41°15' E 013°37'0 0.0
2016-Jun-25 17:33N 41°15' E 013°37'1313.3
2016-Jun-25 16:34N 41°02' E 013°32'1514.8
2016-Jun-25 15:33N 40°48' E 013°26'0 0.4
2016-Jun-25 14:33N 40°49' E 013°26'1414.3
2016-Jun-25 13:33N 41°02' E 013°32'1413.7
2016-Jun-25 12:34N 41°15' E 013°37'7 6.5
2016-Jun-25 11:34N 41°10' E 013°31'1514.6
2016-Jun-25 10:33N 41°02' E 013°15'14 6.8
2016-Jun-25 08:34N 40°55' E 012°60'23 1.6
2016-Jun-24 17:28N 41°07' E 013°27'1414.9
2016-Jun-24 16:33N 40°60' E 013°11'10 7.1
2016-Jun-24 15:06N 40°55' E 012°59'814.5
2016-Jun-24 14:33N 40°59' E 013°08'1614.6
2016-Jun-24 13:26N 41°07' E 013°26'1112.5
2016-Jun-24 12:33N 41°15' E 013°37'4 4.1
2016-Jun-24 11:33N 41°11' E 013°35'1514.8
2016-Jun-24 10:33N 41°03' E 013°19'1515.2
2016-Jun-24 09:33N 40°55' E 013°01'1 0.7
2016-Jun-24 08:32N 40°55' E 013°00'34 0.9
2016-Jun-22 20:21N 41°15' E 013°37'0 0.0
2016-Jun-22 19:33N 41°15' E 013°37'0 0.0
2016-Jun-22 18:33N 41°15' E 013°37'1110.7
2016-Jun-22 17:34N 41°07' E 013°27'11 0.5
2016-Jun-21 20:17N 41°15' E 013°37'0 0.0
2016-Jun-21 18:33N 41°15' E 013°37'1111.0
2016-Jun-21 17:33N 41°07' E 013°27'1514.8
2016-Jun-21 16:33N 40°59' E 013°10'26 6.1
2016-Jun-21 12:23N 41°15' E 013°37'6 7.5
2016-Jun-21 11:34N 41°10' E 013°32'6 0.4
2016-Jun-20 19:15N 41°15' E 013°37'0 0.0
2016-Jun-20 18:22N 41°15' E 013°37'  
Track history (hours):
 
Tides and Currents Weather Stations Pressure Air Temp Water Temp Dewpoint Dewpoint Depression Visibility Wind Speed Wind Dir Waves Ship Positions

Tetide

Last reported at 2016-Jun-30 06:23 UTC. Time now 2016-Jun-30 10:32 UTC.
Position N 41°12' E 013°35'.

Length 70 m; draft 3.6 m.

Type: Passenger vessel. MMSI: 247043100.

Date/timePositionNaut miles runAvg speedWind from/ knotsBaromVisibWave heightAir tempDewpointWater temp
2016-Jun-30 06:23N 41°12' E 013°35'3 0.8
2016-Jun-30 02:23N 41°15' E 013°37'0 0.0
2016-Jun-30 01:06N 41°15' E 013°37'0 0.0
2016-Jun-30 00:33N 41°15' E 013°37'0 0.0
2016-Jun-29 23:33N 41°15' E 013°37'0 0.0
2016-Jun-29 22:26N 41°15' E 013°37'0 0.0
2016-Jun-29 21:33N 41°15' E 013°37'0 0.0
2016-Jun-29 20:20N 41°15' E 013°37'0 0.0
2016-Jun-29 19:33N 41°15' E 013°37'0 0.0
2016-Jun-29 18:33N 41°15' E 013°37'1512.1
2016-Jun-29 17:18N 41°05' E 013°21'15 3.2
2016-Jun-29 12:33N 41°15' E 013°37'0 0.0
2016-Jun-28 20:24N 41°15' E 013°37'0 0.0
2016-Jun-28 19:21N 41°15' E 013°37'2 3.0
2016-Jun-28 18:33N 41°13' E 013°36'1414.5
2016-Jun-28 17:34N 41°04' E 013°21'1515.0
2016-Jun-28 16:33N 40°56' E 013°04'3 3.3
2016-Jun-28 15:32N 40°55' E 013°00'1413.8
2016-Jun-28 14:32N 41°02' E 013°15'1414.0
2016-Jun-28 13:33N 41°10' E 013°31'7 7.2
2016-Jun-28 12:33N 41°15' E 013°37'6 5.6
2016-Jun-28 11:34N 41°11' E 013°33'6 0.4
2016-Jun-27 21:31N 41°15' E 013°37'0 0.0
2016-Jun-27 20:22N 41°15' E 013°37'0 0.0
2016-Jun-27 19:33N 41°15' E 013°37'0 0.0
2016-Jun-27 12:17N 41°15' E 013°37'6 8.9
2016-Jun-27 11:33N 41°10' E 013°32'1514.6
2016-Jun-27 10:33N 41°02' E 013°15'10 4.9
2016-Jun-27 08:32N 40°57' E 013°04'1414.5
2016-Jun-27 07:32N 41°05' E 013°20'17 1.4
2016-Jun-26 19:34N 41°15' E 013°37'0 0.0
2016-Jun-26 18:33N 41°15' E 013°37'0 0.1
2016-Jun-26 17:33N 41°15' E 013°37'14 3.3
2016-Jun-26 13:21N 41°02' E 013°32'1214.6
2016-Jun-26 12:32N 41°13' E 013°37'19 9.0
2016-Jun-26 10:23N 41°02' E 013°15'1315.2
2016-Jun-26 09:32N 40°55' E 013°01'0 0.4
2016-Jun-26 08:32N 40°55' E 013°00'34 3.1
2016-Jun-25 21:31N 41°15' E 013°37'0 0.0
2016-Jun-25 20:26N 41°15' E 013°37'0 0.0
2016-Jun-25 19:33N 41°15' E 013°37'0 0.0
2016-Jun-25 18:33N 41°15' E 013°37'0 0.0
2016-Jun-25 17:33N 41°15' E 013°37'1313.3
2016-Jun-25 16:34N 41°02' E 013°32'1514.8
2016-Jun-25 15:33N 40°48' E 013°26'0 0.4
2016-Jun-25 14:33N 40°49' E 013°26'1414.3
2016-Jun-25 13:33N 41°02' E 013°32'1413.7
2016-Jun-25 12:34N 41°15' E 013°37'7 6.5
2016-Jun-25 11:34N 41°10' E 013°31'1514.6
2016-Jun-25 10:33N 41°02' E 013°15'14 6.8
2016-Jun-25 08:34N 40°55' E 012°60'23 1.6
2016-Jun-24 17:28N 41°07' E 013°27'1414.9
2016-Jun-24 16:33N 40°60' E 013°11'10 7.1
2016-Jun-24 15:06N 40°55' E 012°59'814.5
2016-Jun-24 14:33N 40°59' E 013°08'1614.6
2016-Jun-24 13:26N 41°07' E 013°26'1112.5
2016-Jun-24 12:33N 41°15' E 013°37'4 4.1
2016-Jun-24 11:33N 41°11' E 013°35'1514.8
2016-Jun-24 10:33N 41°03' E 013°19'1515.2
2016-Jun-24 09:33N 40°55' E 013°01'1 0.7
2016-Jun-24 08:32N 40°55' E 013°00'34 0.9
2016-Jun-22 20:21N 41°15' E 013°37'0 0.0
2016-Jun-22 19:33N 41°15' E 013°37'0 0.0
2016-Jun-22 18:33N 41°15' E 013°37'1110.7
2016-Jun-22 17:34N 41°07' E 013°27'11 0.5
2016-Jun-21 20:17N 41°15' E 013°37'0 0.0
2016-Jun-21 18:33N 41°15' E 013°37'1111.0
2016-Jun-21 17:33N 41°07' E 013°27'1514.8
2016-Jun-21 16:33N 40°59' E 013°10'26 6.1
2016-Jun-21 12:23N 41°15' E 013°37'6 7.5
2016-Jun-21 11:34N 41°10' E 013°32'6 0.4
2016-Jun-20 19:15N 41°15' E 013°37'0 0.0
2016-Jun-20 18:22N 41°15' E 013°37'  

Dump ship's entire track history